Latest Weather Observations for Moranbah Airport

IDQ60801

Issued at 6:35 pm EST Thursday 23 October 2014 (issued every 30 minutes, with the page automatically refreshed every 10 minutes)

About weather observations | Map of weather stations | Latest weather observations for QLD | Other Formats
Station Details ID: 034035 Name: MORANBAH AIRPORT Lat: -22.06 Lon: 148.08 Height: 232.2 m
Data from the previous 72 hours. | See also: Recent months at Moranbah Airport
Date/Time
EST
Temp
°C
App
Temp
°C
Dew
Point
Rel
Hum
%
Delta-T
°C
Wind Press
QNH
hPa
Press
MSL
hPa
Rain
since 9 am
mm
Dir
 
Spd
km/h
Gust
km/h
Spd
kts
Gust
kts
23/06:30pm 25.9 22.0 3.2 23 11.3 ESE 13 17 7 9 1017.4 1016.2 0.0
23/06:00pm 28.2 23.2 3.8 21 12.4 ESE 19 24 10 13 1017.0 1015.8 0.0
23/05:30pm 29.4 24.5 4.1 20 13.1 ESE 19 28 10 15 1016.6 1015.5 0.0
23/05:00pm 30.1 25.0 3.2 18 13.7 E 19 26 10 14 1016.4 1015.3 0.0
23/04:30pm 30.2 25.4 2.5 17 14.0 SE 17 24 9 13 1016.2 1015.1 0.0
23/04:00pm 31.2 25.3 4.1 18 14.1 SE 24 35 13 19 1016.0 1014.9 0.0
23/03:30pm 30.9 24.8 3.0 17 14.3 ESE 24 33 13 18 1016.0 1014.9 0.0
23/03:00pm 30.5 23.8 3.5 18 13.9 SE 28 41 15 22 1016.2 1015.1 0.0
23/02:30pm 31.3 25.1 4.2 18 14.2 SE 26 39 14 21 1016.4 1015.3 0.0
23/02:00pm 31.3 24.8 4.9 19 13.9 E 28 50 15 27 1016.9 1015.7 0.0
23/01:52pm 31.0 24.6 5.4 20 13.6 E 28 50 15 27 1016.9 1015.7 0.0
23/01:30pm 30.3 26.1 5.6 21 13.1 SE 17 26 9 14 1017.2 1016.0 0.0
23/01:04pm 29.9 23.6 5.9 22 12.8 E 28 46 15 25 1017.6 1016.4 0.0
23/01:00pm 29.9 22.9 5.9 22 12.8 E 32 46 17 25 1017.7 1016.5 0.0
23/12:56pm 30.0 23.8 6.0 22 12.8 E 28 46 15 25 1017.7 1016.5 0.0
23/12:30pm 29.0 22.9 6.4 24 12.1 ESE 28 43 15 23 1018.4 1017.2 0.0
23/12:00pm 29.0 22.7 7.6 26 11.7 ESE 30 46 16 25 1018.9 1017.7 0.0
23/11:31am 29.1 23.0 6.5 24 12.1 ESE 28 46 15 25 1019.4 1018.2 0.0
23/11:30am 28.7 22.8 7.3 26 11.6 ESE 28 41 15 22 1019.5 1018.3 0.0
23/11:11am 28.3 21.9 8.6 29 10.9 SE 32 50 17 27 1019.9 1018.8 0.0
23/11:00am 28.4 22.8 8.7 29 10.9 ESE 28 44 15 24 1020.1 1019.0 0.0
23/10:30am 27.4 22.4 9.7 33 9.9 ESE 26 35 14 19 1020.6 1019.5 0.0
23/10:00am 25.3 21.0 10.7 40 8.2 SE 24 30 13 16 1021.0 1019.9 0.0
23/09:30am 25.0 22.4 13.2 48 6.9 E 19 30 10 16 1021.1 1020.0 0.0
23/09:00am 24.0 22.6 14.4 55 5.7 E 15 22 8 12 1021.4 1020.2 0.0
23/08:30am 22.4 20.3 13.7 58 5.1 ENE 17 20 9 11 1021.5 1020.3 0.0
23/08:00am 21.3 18.8 14.2 64 4.2 ESE 20 26 11 14 1021.5 1020.3 0.0
23/07:30am 20.2 17.3 13.9 67 3.7 ESE 22 28 12 15 1021.4 1020.2 0.0
23/07:00am 19.3 17.3 13.9 71 3.1 SE 17 20 9 11 1021.2 1020.1 0.0
23/06:30am 17.3 16.2 14.2 82 1.8 SE 13 17 7 9 1021.0 1019.9 0.0
23/06:00am 15.1 13.7 13.5 90 0.9 SE 13 15 7 8 1020.7 1019.6 0.0
23/05:30am 14.3 12.7 12.7 90 0.9 SE 13 15 7 8 1020.5 1019.4 0.0
23/05:00am 14.7 13.2 13.1 90 0.9 SSE 13 15 7 8 1020.5 1019.4 0.0
23/04:30am 14.9 13.7 12.9 88 1.1 SSE 11 13 6 7 1020.3 1019.2 0.0
23/04:00am 14.9 14.1 12.9 88 1.1 SSE 9 13 5 7 1020.1 1019.0 0.0
23/03:30am 15.0 13.4 12.9 87 1.2 SSE 13 13 7 7 1020.2 1019.1 0.0
23/03:00am 15.3 13.9 13.3 88 1.1 SSE 13 15 7 8 1020.1 1019.0 0.0
23/02:30am 15.5 14.4 13.0 85 1.4 SSE 11 13 6 7 1020.4 1019.3 0.0
23/02:00am 15.8 14.7 13.1 84 1.5 SE 11 13 6 7 1020.5 1019.4 0.0
23/01:30am 16.0 14.8 12.7 81 1.8 SE 11 13 6 7 1020.9 1019.8 0.0
23/01:00am 17.1 16.4 13.2 78 2.2 ESE 9 13 5 7 1021.1 1020.0 0.0
23/12:30am 17.8 16.8 13.3 75 2.6 E 11 13 6 7 1021.6 1020.4 0.0
23/12:00am 18.4 17.5 13.7 74 2.7 E 11 15 6 8 1021.7 1020.5 0.0
 
Date/Time
EST
Temp
°C
App
Temp
°C
Dew
Point
Rel
Hum
%
Delta-T
°C
Wind Press
QNH
hPa
Press
MSL
hPa
Rain
since 9 am
mm
Dir
 
Spd
km/h
Gust
km/h
Spd
kts
Gust
kts
22/11:30pm 18.9 17.6 13.7 72 3.0 ENE 13 20 7 11 1021.7 1020.5 0.0
22/11:00pm 19.3 17.3 13.9 71 3.1 ENE 17 20 9 11 1021.6 1020.4 0.0
22/10:30pm 19.9 18.8 14.3 70 3.3 E 13 19 7 10 1021.6 1020.4 0.0
22/10:00pm 20.6 18.2 14.5 68 3.6 E 20 28 11 15 1021.2 1020.1 0.0
22/09:30pm 21.1 19.1 14.0 64 4.2 E 17 24 9 13 1020.5 1019.4 0.0
22/09:00pm 22.1 19.6 14.2 61 4.7 E 20 32 11 17 1020.1 1019.0 0.0
22/08:30pm 22.8 20.3 13.6 56 5.4 ENE 19 24 10 13 1019.7 1018.6 0.0
22/08:00pm 23.7 21.9 13.3 52 6.1 ENE 15 20 8 11 1019.4 1018.2 0.0
22/07:30pm 24.7 22.0 13.0 48 6.8 ENE 19 26 10 14 1019.1 1017.9 0.0
22/07:00pm 25.5 22.6 10.9 40 8.3 E 17 24 9 13 1018.8 1017.6 0.0
22/06:30pm 26.5 23.0 8.9 33 9.7 ESE 17 22 9 12 1018.6 1017.4 0.0
22/06:00pm 27.2 23.8 9.1 32 10.0 SE 17 22 9 12 1018.4 1017.2 0.0
22/05:30pm 28.7 23.3 9.4 30 10.8 ESE 28 37 15 20 1018.2 1017.0 0.0
22/05:00pm 28.5 24.7 9.7 31 10.6 ESE 20 28 11 15 1018.0 1016.8 0.0
22/04:30pm 29.4 24.4 9.5 29 11.2 ESE 26 39 14 21 1017.9 1016.7 0.0
22/04:00pm 28.8 23.8 9.5 30 10.8 ESE 26 35 14 19 1017.8 1016.6 0.0
22/03:30pm 30.0 25.3 10.5 30 11.2 ESE 26 35 14 19 1017.8 1016.6 0.0
22/03:00pm 29.0 24.2 10.2 31 10.7 E 26 33 14 18 1018.1 1016.9 0.0
22/02:30pm 30.4 27.4 11.9 32 10.9 SE 19 28 10 15 1018.3 1017.1 0.0
22/02:00pm 29.9 25.4 11.4 32 10.8 ESE 26 39 14 21 1018.8 1017.6 0.0
22/01:30pm 29.4 27.0 11.5 33 10.4 ESE 15 26 8 14 1019.3 1018.1 0.0
22/01:00pm 29.3 25.5 12.3 35 10.0 SE 24 32 13 17 1019.7 1018.6 0.0
22/12:30pm 29.8 26.5 12.7 35 10.2 ESE 22 35 12 19 1020.2 1019.1 0.0
22/12:00pm 27.8 23.8 11.8 37 9.3 SE 24 30 13 16 1020.8 1019.7 0.0
22/11:30am 27.7 23.5 12.5 39 8.9 E 26 37 14 20 1021.6 1020.4 0.0
22/11:00am 27.3 23.3 12.9 41 8.5 E 26 37 14 20 1021.9 1020.7 0.0
22/10:30am 25.8 21.7 12.6 44 7.7 E 26 33 14 18 1022.5 1021.3 0.0
22/10:00am 24.8 20.0 13.0 47 6.9 E 30 41 16 22 1022.8 1021.6 0.0
22/09:30am 25.1 20.0 13.6 49 6.8 E 33 44 18 24 1023.1 1021.9 0.0
22/09:00am 24.8 20.8 14.0 51 6.4 E 28 39 15 21 1023.4 1022.2 0.0
22/08:30am 22.5 19.0 13.3 56 5.4 ENE 24 35 13 19 1023.6 1022.5 0.0
22/08:00am 21.8 18.4 13.7 60 4.7 E 24 32 13 17 1023.4 1022.2 0.0
22/07:30am 20.7 17.7 13.6 64 4.1 ESE 22 30 12 16 1023.2 1022.0 0.0
22/07:00am 19.4 16.6 13.3 68 3.5 SE 20 26 11 14 1022.9 1021.7 0.0
22/06:30am 17.4 15.8 12.7 74 2.6 SE 13 17 7 9 1022.8 1021.6 0.0
22/06:00am 14.9 13.6 12.4 85 1.4 SE 11 13 6 7 1022.6 1021.4 0.0
22/05:30am 14.1 12.6 11.8 86 1.2 SE 11 13 6 7 1022.2 1021.0 0.0
22/05:00am 14.7 13.0 12.4 86 1.3 SSE 13 15 7 8 1022.1 1020.9 0.0
22/04:30am 14.9 13.2 12.4 85 1.4 SSE 13 15 7 8 1021.8 1020.6 0.0
22/04:00am 14.6 12.9 12.6 88 1.1 SSE 13 15 7 8 1021.8 1020.6 0.0
22/03:30am 14.1 12.6 12.0 87 1.1 SE 11 13 6 7 1021.7 1020.5 0.0
22/03:00am 14.8 13.1 12.5 86 1.3 SE 13 15 7 8 1022.0 1020.8 0.0
22/02:30am 15.4 14.2 12.7 84 1.5 ESE 11 13 6 7 1022.1 1020.9 0.0
22/02:00am 16.0 14.5 13.1 83 1.6 ESE 13 17 7 9 1022.1 1020.9 0.0
22/01:30am 16.5 14.3 13.2 81 1.9 SE 17 20 9 11 1022.3 1021.1 0.0
22/01:00am 16.3 14.1 13.4 83 1.6 SE 17 20 9 11 1022.7 1021.5 0.0
22/12:30am 15.9 14.3 12.8 82 1.7 SSE 13 15 7 8 1023.0 1021.8 0.0
22/12:00am 16.0 14.3 12.6 80 1.9 SE 13 15 7 8 1023.3 1022.1 0.0
 
Date/Time
EST
Temp
°C
App
Temp
°C
Dew
Point
Rel
Hum
%
Delta-T
°C
Wind Press
QNH
hPa
Press
MSL
hPa
Rain
since 9 am
mm
Dir
 
Spd
km/h
Gust
km/h
Spd
kts
Gust
kts
21/11:30pm 16.1 14.5 11.7 75 2.4 SE 11 13 6 7 1023.6 1022.5 0.0
21/11:00pm 17.7 15.7 12.6 72 2.9 ESE 15 17 8 9 1023.7 1022.6 0.0
21/10:30pm 17.1 15.5 11.4 69 3.1 E 11 11 6 6 1023.6 1022.5 0.0
21/10:00pm 18.0 15.9 11.3 65 3.7 E 13 13 7 7 1023.6 1022.5 0.0
21/09:30pm 19.4 17.5 11.9 62 4.2 E 13 15 7 8 1023.3 1022.1 0.0
21/09:00pm 20.3 18.6 12.3 60 4.5 E 13 17 7 9 1023.2 1022.0 0.0
21/08:30pm 21.3 18.4 12.2 56 5.2 ENE 19 26 10 14 1023.0 1021.8 0.0
21/08:00pm 22.3 18.8 12.3 53 5.7 ENE 22 30 12 16 1022.6 1021.4 0.0
21/07:30pm 23.1 19.2 12.1 50 6.3 ENE 24 33 13 18 1022.3 1021.1 0.0
21/07:00pm 23.8 19.8 11.8 47 6.8 ENE 24 33 13 18 1021.8 1020.6 0.0
21/06:30pm 24.8 20.2 11.0 42 7.8 ENE 26 33 14 18 1021.0 1019.9 0.0
21/06:00pm 26.0 22.4 10.6 38 8.7 E 20 28 11 15 1020.5 1019.4 0.0
21/05:30pm 27.2 22.8 10.4 35 9.5 E 24 32 13 17 1020.1 1019.0 0.0
21/05:00pm 28.0 23.2 10.2 33 10.1 E 26 35 14 19 1019.6 1018.5 0.0
21/04:30pm 28.9 23.5 9.6 30 10.9 E 28 37 15 20 1019.3 1018.1 0.0
21/04:00pm 28.9 24.4 10.1 31 10.7 ESE 24 32 13 17 1019.3 1018.1 0.0
21/03:30pm 29.3 23.9 9.4 29 11.2 SE 28 35 15 19 1019.3 1018.1 0.0
21/03:00pm 29.6 24.3 9.7 29 11.3 E 28 46 15 25 1019.4 1018.2 0.0
21/02:36pm 29.3 23.7 8.9 28 11.4 E 28 52 15 28 1019.6 1018.5 0.0
21/02:30pm 29.6 24.5 9.2 28 11.5 E 26 37 14 20 1019.7 1018.6 0.0
21/02:25pm 29.2 23.7 9.3 29 11.2 ESE 28 46 15 25 1019.8 1018.7 0.0
21/02:00pm 28.9 23.5 9.6 30 10.9 SE 28 32 15 17 1020.1 1019.0 0.0
21/01:57pm 28.8 23.4 9.5 30 10.9 E 28 46 15 25 1020.2 1019.1 0.0
21/01:30pm 29.1 23.0 10.3 31 10.7 E 33 44 18 24 1020.5 1019.4 0.0
21/01:01pm 29.2 23.6 10.3 31 10.8 ESE 30 50 16 27 1020.8 1019.7 0.0
21/01:00pm 29.4 24.1 10.0 30 11.0 ESE 28 44 15 24 1020.8 1019.7 0.0
21/12:59pm 28.5 22.6 9.2 30 10.8 ESE 30 48 16 26 1020.9 1019.8 0.0
21/12:50pm 29.2 21.8 9.8 30 11.0 ESE 39 48 21 26 1021.1 1020.0 0.0
21/12:40pm 28.9 23.1 9.6 30 10.9 E 30 48 16 26 1021.4 1020.2 0.0
21/12:30pm 28.9 22.6 9.1 29 11.1 E 32 44 17 24 1021.7 1020.5 0.0
21/12:05pm 28.7 23.5 10.4 32 10.5 E 28 46 15 25 1022.1 1020.9 0.0
21/12:00pm 28.4 22.4 8.7 29 10.9 E 30 46 16 25 1022.2 1021.0 0.0
21/11:54am 28.8 23.5 10.0 31 10.7 ESE 28 46 15 25 1022.0 1020.8 0.0
21/11:30am 27.3 21.1 9.2 32 10.1 E 32 41 17 22 1022.7 1021.5 0.0
21/11:00am 27.0 22.2 11.5 38 8.9 ESE 28 43 15 23 1023.1 1021.9 0.0
21/10:30am 24.5 20.0 11.5 44 7.4 ENE 26 32 14 17 1023.5 1022.4 0.0
21/10:00am 24.3 19.4 12.6 48 6.8 E 30 43 16 23 1023.9 1022.8 0.0
21/09:30am 23.1 18.3 13.0 53 5.9 E 30 43 16 23 1024.1 1023.0 0.0
21/09:00am 22.8 18.0 13.0 54 5.7 E 30 39 16 21 1024.1 1023.0 0.0
21/08:30am 21.9 16.9 13.3 58 5.0 ESE 32 43 17 23 1024.0 1022.9 0.0
21/08:00am 21.1 16.1 13.3 61 4.5 ESE 32 41 17 22 1023.8 1022.7 0.0
21/07:30am 20.4 16.5 13.4 64 4.0 ESE 26 35 14 19 1023.6 1022.5 0.0
21/07:00am 18.4 15.2 13.0 71 3.1 ESE 22 30 12 16 1023.3 1022.1 0.0
21/06:30am 17.8 14.5 12.9 73 2.8 SE 22 30 12 16 1022.9 1021.7 0.0
21/06:00am 16.7 13.5 13.0 79 2.1 SE 22 32 12 17 1022.4 1021.2 0.0
21/05:30am 16.2 13.0 13.1 82 1.7 SE 22 30 12 16 1022.1 1020.9 0.0
21/05:00am 16.2 13.6 13.7 85 1.4 SE 20 24 11 13 1021.9 1020.7 0.0
21/04:30am 15.6 14.0 13.8 89 1.0 SE 15 20 8 11 1021.6 1020.4 0.0
21/04:00am 14.6 12.6 12.8 89 1.0 SE 15 15 8 8 1021.2 1020.1 0.0
21/03:30am 15.3 13.4 13.1 87 1.2 SSE 15 15 8 8 1021.2 1020.1 0.0
21/03:00am 15.5 14.1 13.3 87 1.2 SSE 13 17 7 9 1021.2 1020.1 0.0
21/02:30am 15.6 13.7 13.1 85 1.4 SSE 15 17 8 9 1021.2 1020.1 0.0
21/02:00am 16.0 13.9 13.7 86 1.3 SSE 17 19 9 10 1021.4 1020.2 0.0
21/01:30am 15.5 14.0 13.0 85 1.4 SSE 13 15 7 8 1021.7 1020.5 0.0
21/01:00am 15.6 13.7 13.1 85 1.4 SE 15 17 8 9 1021.9 1020.7 0.0
21/12:30am 16.4 15.3 13.1 81 1.9 ESE 11 15 6 8 1022.4 1021.2 0.0
21/12:00am 16.5 15.4 13.2 81 1.9 ESE 11 13 6 7 1022.7 1021.5 0.0
 
Date/Time
EST
Temp
°C
App
Temp
°C
Dew
Point
Rel
Hum
%
Delta-T
°C
Wind Press
QNH
hPa
Press
MSL
hPa
Rain
since 9 am
mm
Dir
 
Spd
km/h
Gust
km/h
Spd
kts
Gust
kts
20/11:30pm 16.2 16.7 11.6 74 2.5 CALM 0 0 0 0 1022.9 1021.7 0.0
20/11:00pm 16.9 17.4 11.6 71 2.9 CALM 0 0 0 0 1023.0 1021.8 0.0
20/10:30pm 18.4 17.5 12.6 69 3.3 ENE 9 13 5 7 1023.0 1021.8 0.0
20/10:00pm 19.3 18.5 12.8 66 3.7 ENE 9 15 5 8 1023.0 1021.8 0.0
20/09:30pm 20.4 18.0 12.6 61 4.4 ENE 17 24 9 13 1022.8 1021.6 0.0
20/09:00pm 21.1 18.2 12.3 57 5.0 ENE 19 26 10 14 1022.4 1021.2 0.0
20/08:30pm 22.2 18.2 11.9 52 5.8 ENE 24 30 13 16 1021.9 1020.7 0.0
20/08:00pm 23.3 19.0 10.7 45 7.0 ENE 24 33 13 18 1021.0 1019.9 0.0
20/07:30pm 24.1 19.3 10.4 42 7.7 ENE 26 35 14 19 1020.5 1019.4 0.0
20/07:00pm 24.3 20.2 7.9 35 8.8 ENE 19 24 10 13 1019.9 1018.8 0.0

Other Formats:

Comma delimited format used in spreadsheet applications
http://www.bom.gov.au/fwo/IDQ60801/IDQ60801.94397.axf

JavaScript Object Notation format (JSON) in row-major order
http://www.bom.gov.au/fwo/IDQ60801/IDQ60801.94397.json